createdAt,value
2023-03-25T18:00:18.692Z,51.46
2023-03-25T18:02:46.653Z,51.01
2023-03-25T18:05:13.383Z,50.63
2023-03-25T18:07:40.072Z,50.33
2023-03-25T18:10:15.987Z,50.18
2023-03-25T18:12:43.043Z,49.92
2023-03-25T18:15:10.523Z,49.49
2023-03-25T18:17:37.083Z,49.53
2023-03-25T18:20:15.555Z,49.23
2023-03-25T18:22:42.370Z,49.30
2023-03-25T18:25:10.071Z,49.28
2023-03-25T18:27:43.094Z,48.75
2023-03-25T18:30:25.656Z,48.32
2023-03-25T18:32:52.538Z,48.14
2023-03-25T18:35:19.380Z,47.76
2023-03-25T18:37:48.766Z,47.74
2023-03-25T18:40:23.331Z,47.54
2023-03-25T18:42:51.742Z,47.44
2023-03-25T18:45:20.246Z,47.06
2023-03-25T18:47:49.764Z,46.71
2023-03-25T18:50:33.774Z,46.73
2023-03-25T18:53:01.122Z,46.45
2023-03-25T18:55:29.697Z,46.49
2023-03-25T18:57:57.442Z,46.07
2023-03-25T19:00:31.134Z,45.78
2023-03-25T19:02:58.609Z,45.94
2023-03-25T19:05:26.246Z,45.86
2023-03-25T19:07:53.699Z,45.64
2023-03-25T19:10:26.761Z,45.42
2023-03-25T19:12:53.663Z,45.28
2023-03-25T19:15:21.918Z,45.00
2023-03-25T19:17:48.953Z,45.16
2023-03-25T19:20:24.468Z,44.81
2023-03-25T19:22:52.371Z,44.84
2023-03-25T19:25:19.872Z,44.84
2023-03-25T19:27:46.997Z,44.66
2023-03-25T19:30:17.045Z,44.65
2023-03-25T19:32:44.513Z,44.63
2023-03-25T19:35:12.558Z,44.58
2023-03-25T19:37:46.681Z,44.38
2023-03-25T19:40:19.104Z,44.49
2023-03-25T19:42:46.374Z,44.43
2023-03-25T19:45:13.894Z,44.32
2023-03-25T19:47:45.736Z,44.34
2023-03-25T19:50:19.042Z,44.01
2023-03-25T19:52:48.237Z,43.97
2023-03-25T19:55:16.669Z,43.97
2023-03-25T19:57:45.026Z,44.03
2023-03-25T20:00:20.641Z,44.00
2023-03-25T20:02:50.852Z,43.94
2023-03-25T20:05:19.328Z,43.62
2023-03-25T20:07:52.310Z,43.60
2023-03-25T20:10:21.427Z,43.69
2023-03-25T20:12:49.514Z,43.83
2023-03-25T20:15:26.967Z,43.70
2023-03-25T20:17:54.695Z,43.44
2023-03-25T20:20:22.259Z,43.53
2023-03-25T20:22:48.895Z,43.49
2023-03-25T20:25:16.267Z,43.49
2023-03-25T20:27:43.722Z,43.35
2023-03-25T20:30:13.938Z,43.59
2023-03-25T20:32:42.674Z,43.23
2023-03-25T20:35:13.128Z,43.52
2023-03-25T20:37:41.194Z,43.24
2023-03-25T20:40:11.605Z,43.41
2023-03-25T20:42:43.144Z,43.28
2023-03-25T20:45:12.573Z,43.19
2023-03-25T20:47:39.404Z,42.99
2023-03-25T20:50:07.056Z,43.19
2023-03-25T20:52:34.259Z,43.11
2023-03-25T20:55:01.422Z,43.25
2023-03-25T20:57:27.997Z,43.15
2023-03-25T20:59:54.494Z,43.22
2023-03-25T21:02:21.401Z,43.28
2023-03-25T21:04:48.698Z,43.10
2023-03-25T21:07:18.673Z,43.07
2023-03-25T21:09:47.249Z,43.07
2023-03-25T21:12:13.918Z,43.22
2023-03-25T21:14:41.551Z,42.82
2023-03-25T21:17:09.984Z,42.95
2023-03-25T21:19:37.142Z,43.04
2023-03-25T21:22:04.398Z,43.05
2023-03-25T21:24:34.212Z,42.91
2023-03-25T21:27:02.756Z,42.76
2023-03-25T21:29:29.886Z,42.84
2023-03-25T21:31:57.970Z,42.91
2023-03-25T21:34:25.133Z,42.81
2023-03-25T21:36:51.684Z,42.74
2023-03-25T21:39:18.298Z,42.94
2023-03-25T21:41:44.806Z,42.52
2023-03-25T21:44:12.667Z,43.04
2023-03-25T21:46:40.984Z,42.72
2023-03-25T21:49:08.771Z,42.58
2023-03-25T21:51:42.304Z,42.68
2023-03-25T21:54:09.825Z,42.53
2023-03-25T21:56:40.123Z,42.79
2023-03-25T21:59:06.799Z,42.74
2023-03-25T22:01:33.591Z,42.66
2023-03-25T22:04:01.487Z,42.43
2023-03-25T22:06:30.989Z,42.60
2023-03-25T22:08:57.842Z,42.72
2023-03-25T22:11:31.279Z,42.66
2023-03-25T22:13:58.283Z,42.63
2023-03-25T22:16:25.808Z,42.79
2023-03-25T22:18:53.501Z,42.58
2023-03-25T22:21:21.779Z,42.44
2023-03-25T22:23:49.897Z,42.47
2023-03-25T22:26:17.672Z,42.42
2023-03-25T22:28:44.746Z,42.55
2023-03-25T22:31:17.772Z,42.50
2023-03-25T22:33:45.452Z,42.63
2023-03-25T22:36:16.244Z,42.61
2023-03-25T22:38:45.417Z,42.50
2023-03-25T22:41:15.337Z,42.35
2023-03-25T22:43:42.766Z,42.50
2023-03-25T22:46:09.784Z,42.55
2023-03-25T22:48:39.264Z,42.49
2023-03-25T22:51:11.436Z,42.54
2023-03-25T22:53:38.908Z,42.50
2023-03-25T22:56:09.949Z,42.30
2023-03-25T22:58:37.963Z,42.33
2023-03-25T23:01:07.706Z,42.34
2023-03-25T23:03:34.386Z,42.26
2023-03-25T23:06:06.308Z,42.29
2023-03-25T23:08:35.756Z,42.27
2023-03-25T23:11:08.756Z,42.44
2023-03-25T23:13:35.584Z,42.13
2023-03-25T23:16:08.718Z,42.18
2023-03-25T23:18:36.801Z,42.44
2023-03-25T23:21:03.806Z,42.37
2023-03-25T23:23:30.878Z,42.29
2023-03-25T23:26:14.381Z,42.51
2023-03-25T23:28:41.854Z,42.35
2023-03-25T23:31:13.114Z,42.19
2023-03-25T23:33:40.830Z,42.24
2023-03-25T23:36:09.695Z,42.12
2023-03-25T23:38:37.126Z,42.20
2023-03-25T23:41:17.289Z,42.28
2023-03-25T23:43:44.444Z,42.45
2023-03-25T23:46:12.674Z,42.35
2023-03-25T23:48:43.115Z,42.28
2023-03-25T23:51:17.489Z,42.07
2023-03-25T23:53:46.923Z,42.22
2023-03-25T23:56:15.873Z,42.09
2023-03-25T23:58:43.125Z,42.21
